Portada
METAR-TAF:

METAR-TAF

Aeroports :

Aeroport Internacional Reina Beatrix

Aruba, Aruba

latitud: 12-30N, longitud: 070-01W, altitud: 18 m

Observació

L'informe es va fer fa 17 minuts, a les 19:00 UTC
Vent 21 kt del Est
Temperatura 34°C
Humitat 53%
Pressió 1006 hPa
Visibilitat 10 km o més
Escasses núvols a una alçada de 2500 ft

METAR: TNCA 291900Z 10021KT 9999 FEW025 34/23 Q1006 NOSIG

Hora: 15:17 (19:17 UTC)

Pronòstic

L'informe es va fer fa 1 hora i 17 minuts, a les 18:00 UTC
Pronòstic vàlid del 29 a les 18 UTC al 30 a les 18 UTC
Vent 19 kt del Est
Visibilitat 10 km o més
Núvols disperses a una alçada de 2200 ft
Probabilitat 30% :
Temporalment
l' 30 a les 08 UTC al 30 a les 12 UTC
Visibilitat: 5000 m
Núvols disperses a una alçada de 1200 ft, Cumulonimbus.
Cel ennuvolat a una alçada de 1400 ft
tempesta, pluja

TAF: TNCA 291800Z 2918/3018 09019KT 9999 SCT022 PROB30 TEMPO 3008/3012 5000 TSRA SCT012CB BKN014

Observacions i pronòstics meteorològics de més de 4000 aeroports (METAR i TAF).

Les estacions disponibles són els punts grocs i vermells al mapa.

Posi el ratolí al punt desitjat per veure el nom de l'estació.

Feu clic per veure les observacions i els pronòstics meteorològics.

Per canviar el mapa: feu clic els botons verds amb una creu de color negre per apropar; al botó verd amb un guió per allunyar la imatge; o en les fletxes verdes per a mapes adjacents.


METAR-TAF: